Nearby METAR Reports

 

KLWM - Lawrence,MA, USA
Distance from station: NE 12mi, 19km
Updated: Tue, 27-Jun-2017 12:54am EDT
Clear
Clear
 Wind from S
Wind: S 5 mph , 7 km/h
Temperature: 63°F , 17°C
Dew Point: 55°F , 13°C
Humidity: 77%
Barometer: 30.00 inHg , 1015.9 hPa
Clouds: Clear
Visibility: 10 miles , 16 km
2017/06/27 04:54 KLWM 270454Z AUTO 19004KT 10SM CLR 17/13 A3000 RMK AO2 SLP159 T01720128 402610156
KBED - Bedford,MA, USA
Distance from station: SSE 12mi, 19km
Updated: Tue, 27-Jun-2017 12:56am EDT
Clear
Clear
 Wind from calm
Wind: Calm
Temperature: 57°F , 14°C
Dew Point: 52°F , 11°C
Humidity: 82%
Barometer: 29.98 inHg , 1015.2 hPa
Clouds: Clear
Visibility: 10 miles , 16 km
2017/06/27 04:56 KBED 270456Z AUTO 00000KT 10SM CLR 14/11 A2998 RMK AO2 SLP164 T01440106 402610133

Metar display script from Saratoga-Weather.org